Terminal Aerodrome Forecast
Issued by NWS

Home | Current Version | Previous Version | Text Only | Print | Product List | Glossary On
Versions: 1 2 3 4 5 6 7 8 9 10 11 12 13 14 15 16 17
600
FTUS43 KIND 202327
TAFLAF
TAF
KLAF 202327Z 2100/2124 20005KT P6SM OVC015
     FM210600 20005KT 1/4SM -DZ FG OVC003 WS020/23035KT
     FM211200 17005KT 1/2SM -DZ FG VCSH OVC003 WS020/23035KT
     FM211600 18006KT 3/4SM -DZ BR VCSH OVC003
     FM211800 19007KT 1SM -DZ BR OVC003
      AMD LTD TO CLD VIS AND WIND 2102/2114=

USA.gov is the U.S. government's official web portal to all federal, state and local government web resources and services.